Time,TemperatureF,DewpointF,PressureIn,WindDirection,WindDirectionDegrees,WindSpeedMPH,WindSpeedGustMPH,Humidity,HourlyPrecipIn,Conditions,Clouds,dailyrainin,SolarRadiationWatts/m^2,SoftwareType,DateUTC
2014-04-20 00:04:00,53.1,38.9,30.16,SSE,160,1.0,3.0,58,-99.99,,,-99.99,0.0,1-wire,2014-04-20 05:04:00,
2014-04-20 00:09:00,53.2,39.0,30.16,SSE,160,0.0,2.0,58,-99.99,,,-99.99,0.0,1-wire,2014-04-20 05:09:00,
2014-04-20 00:14:00,53.3,38.8,30.16,SSE,168,1.0,3.0,58,-99.99,,,-99.99,0.0,1-wire,2014-04-20 05:14:00,
2014-04-20 00:19:00,53.3,38.7,30.16,SSE,168,0.0,2.0,58,-99.99,,,-99.99,0.0,1-wire,2014-04-20 05:19:00,
2014-04-20 00:24:00,53.5,38.8,30.16,South,170,0.0,2.0,57,-99.99,,,-99.99,0.0,1-wire,2014-04-20 05:24:00,
2014-04-20 00:29:00,53.6,38.6,30.16,SSE,163,1.0,3.0,57,-99.99,,,-99.99,0.0,1-wire,2014-04-20 05:29:00,
2014-04-20 00:34:00,53.7,38.3,30.16,SSE,163,2.0,5.0,56,-99.99,,,-99.99,0.0,1-wire,2014-04-20 05:34:00,
2014-04-20 00:39:00,54.1,38.3,30.16,SSE,163,2.0,9.0,55,-99.99,,,-99.99,0.0,1-wire,2014-04-20 05:39:00,
2014-04-20 00:44:00,54.4,38.2,30.16,SSE,163,1.0,4.0,54,-99.99,,,-99.99,0.0,1-wire,2014-04-20 05:44:00,
2014-04-20 00:49:00,54.7,38.1,30.16,SSE,163,3.0,6.0,53,-99.99,,,-99.99,0.0,1-wire,2014-04-20 05:49:00,
2014-04-20 00:55:00,55.1,38.2,30.16,SSE,166,0.0,2.0,53,-99.99,,,-99.99,0.0,1-wire,2014-04-20 05:55:00,
2014-04-20 01:01:00,55.1,38.1,30.16,SSE,167,2.0,5.0,52,-99.99,,,-99.99,0.0,1-wire,2014-04-20 06:01:00,
2014-04-20 01:06:00,55.4,38.3,30.16,SSE,167,3.0,6.0,52,-99.99,,,-99.99,0.0,1-wire,2014-04-20 06:06:00,
2014-04-20 01:11:00,55.0,38.1,30.15,SSE,167,1.0,4.0,53,-99.99,,,-99.99,0.0,1-wire,2014-04-20 06:11:00,
2014-04-20 01:17:00,54.8,38.3,30.16,South,170,1.0,4.0,54,-99.99,,,-99.99,0.0,1-wire,2014-04-20 06:17:00,
2014-04-20 01:22:00,54.7,38.1,30.15,South,170,3.0,7.0,53,-99.99,,,-99.99,0.0,1-wire,2014-04-20 06:22:00,
2014-04-20 01:27:00,54.9,38.1,30.15,South,178,2.0,5.0,53,-99.99,,,-99.99,0.0,1-wire,2014-04-20 06:27:00,
2014-04-20 01:32:00,54.9,37.9,30.15,South,178,3.0,8.0,53,-99.99,,,-99.99,0.0,1-wire,2014-04-20 06:32:00,
2014-04-20 01:37:00,55.1,37.9,30.14,South,178,4.0,7.0,52,-99.99,,,-99.99,0.0,1-wire,2014-04-20 06:37:00,
2014-04-20 01:42:00,55.4,37.9,30.15,South,176,3.0,6.0,52,-99.99,,,-99.99,0.0,1-wire,2014-04-20 06:42:00,